sensor_id;sensor_type;location;lat;lon;timestamp;pressure;altitude;pressure_sealevel;temperature;humidity
49461;BME280;35355;49.198;-0.368;2023-01-28T00:01:39;102363.78;;;3.44;76.82
49461;BME280;35355;49.198;-0.368;2023-01-28T00:04:04;102361.06;;;3.44;76.77
49461;BME280;35355;49.198;-0.368;2023-01-28T00:06:29;102355.50;;;3.46;76.63
49461;BME280;35355;49.198;-0.368;2023-01-28T00:08:55;102358.38;;;3.44;76.84
49461;BME280;35355;49.198;-0.368;2023-01-28T00:11:21;102360.91;;;3.46;76.52
49461;BME280;35355;49.198;-0.368;2023-01-28T00:13:50;102355.31;;;3.47;76.66
49461;BME280;35355;49.198;-0.368;2023-01-28T00:16:17;102350.75;;;3.48;76.90
49461;BME280;35355;49.198;-0.368;2023-01-28T00:18:42;102344.69;;;3.46;76.73
49461;BME280;35355;49.198;-0.368;2023-01-28T00:21:13;102356.16;;;3.48;76.83
49461;BME280;35355;49.198;-0.368;2023-01-28T00:23:41;102356.16;;;3.48;76.52
49461;BME280;35355;49.198;-0.368;2023-01-28T00:26:11;102355.97;;;3.49;76.88
49461;BME280;35355;49.198;-0.368;2023-01-28T00:28:38;102351.75;;;3.47;76.32
49461;BME280;35355;49.198;-0.368;2023-01-28T00:31:19;102356.34;;;3.46;76.70
49461;BME280;35355;49.198;-0.368;2023-01-28T00:33:46;102357.16;;;3.47;76.18
49461;BME280;35355;49.198;-0.368;2023-01-28T00:36:12;102357.50;;;3.44;76.00
49461;BME280;35355;49.198;-0.368;2023-01-28T00:38:38;102368.31;;;3.44;76.24
49461;BME280;35355;49.198;-0.368;2023-01-28T00:41:15;102364.94;;;3.42;76.60
49461;BME280;35355;49.198;-0.368;2023-01-28T00:43:41;102358.91;;;3.40;76.41
49461;BME280;35355;49.198;-0.368;2023-01-28T00:46:08;102362.78;;;3.37;75.89
49461;BME280;35355;49.198;-0.368;2023-01-28T00:48:35;102354.84;;;3.36;76.53
49461;BME280;35355;49.198;-0.368;2023-01-28T00:51:01;102371.22;;;3.34;76.22
49461;BME280;35355;49.198;-0.368;2023-01-28T00:53:26;102363.13;;;3.34;75.92
49461;BME280;35355;49.198;-0.368;2023-01-28T00:55:52;102363.31;;;3.32;76.10
49461;BME280;35355;49.198;-0.368;2023-01-28T00:58:18;102343.72;;;3.30;76.09
49461;BME280;35355;49.198;-0.368;2023-01-28T01:00:44;102358.91;;;3.31;76.25
49461;BME280;35355;49.198;-0.368;2023-01-28T01:03:09;102353.16;;;3.34;76.09
49461;BME280;35355;49.198;-0.368;2023-01-28T01:05:35;102349.28;;;3.37;76.12
49461;BME280;35355;49.198;-0.368;2023-01-28T01:08:00;102357.03;;;3.40;76.07
49461;BME280;35355;49.198;-0.368;2023-01-28T01:10:26;102361.25;;;3.43;76.20
49461;BME280;35355;49.198;-0.368;2023-01-28T01:12:51;102362.91;;;3.44;76.28
49461;BME280;35355;49.198;-0.368;2023-01-28T01:15:17;102364.25;;;3.48;76.22
49461;BME280;35355;49.198;-0.368;2023-01-28T01:17:46;102357.16;;;3.47;75.82
49461;BME280;35355;49.198;-0.368;2023-01-28T01:20:23;102366.44;;;3.53;76.23
49461;BME280;35355;49.198;-0.368;2023-01-28T01:22:49;102367.28;;;3.53;75.96
49461;BME280;35355;49.198;-0.368;2023-01-28T01:25:16;102366.06;;;3.56;76.14
49461;BME280;35355;49.198;-0.368;2023-01-28T01:27:43;102360.19;;;3.52;76.08
49461;BME280;35355;49.198;-0.368;2023-01-28T01:30:11;102357.31;;;3.54;75.90
49461;BME280;35355;49.198;-0.368;2023-01-28T01:32:37;102371.00;;;3.52;75.81
49461;BME280;35355;49.198;-0.368;2023-01-28T01:35:04;102362.72;;;3.45;75.55
49461;BME280;35355;49.198;-0.368;2023-01-28T01:37:33;102370.84;;;3.45;75.99
49461;BME280;35355;49.198;-0.368;2023-01-28T01:39:58;102374.56;;;3.44;76.00
49461;BME280;35355;49.198;-0.368;2023-01-28T01:42:26;102375.75;;;3.42;75.46
49461;BME280;35355;49.198;-0.368;2023-01-28T01:45:00;102363.78;;;3.44;75.96
49461;BME280;35355;49.198;-0.368;2023-01-28T01:52:55;102373.72;;;3.44;75.94
49461;BME280;35355;49.198;-0.368;2023-01-28T01:55:24;102373.22;;;3.48;75.90
49461;BME280;35355;49.198;-0.368;2023-01-28T01:57:54;102368.47;;;3.50;76.20
49461;BME280;35355;49.198;-0.368;2023-01-28T02:00:20;102368.28;;;3.52;75.74
49461;BME280;35355;49.198;-0.368;2023-01-28T02:02:48;102375.22;;;3.55;75.92
49461;BME280;35355;49.198;-0.368;2023-01-28T02:05:17;102368.94;;;3.54;75.91
49461;BME280;35355;49.198;-0.368;2023-01-28T02:07:44;102371.28;;;3.57;75.82
49461;BME280;35355;49.198;-0.368;2023-01-28T02:10:10;102379.22;;;3.59;76.22
49461;BME280;35355;49.198;-0.368;2023-01-28T02:12:39;102369.94;;;3.61;75.80
49461;BME280;35355;49.198;-0.368;2023-01-28T02:15:15;102375.34;;;3.61;76.24
49461;BME280;35355;49.198;-0.368;2023-01-28T02:17:41;102381.41;;;3.63;76.01
49461;BME280;35355;49.198;-0.368;2023-01-28T02:20:10;102382.06;;;3.65;76.26
49461;BME280;35355;49.198;-0.368;2023-01-28T02:30:45;102376.69;;;3.57;76.29
49461;BME280;35355;49.198;-0.368;2023-01-28T02:33:31;102380.56;;;3.63;75.96
49461;BME280;35355;49.198;-0.368;2023-01-28T02:36:05;102377.84;;;3.63;76.22
49461;BME280;35355;49.198;-0.368;2023-01-28T02:38:41;102379.56;;;3.64;75.91
49461;BME280;35355;49.198;-0.368;2023-01-28T02:41:14;102374.16;;;3.64;76.21
49461;BME280;35355;49.198;-0.368;2023-01-28T02:43:46;102362.19;;;3.58;75.94
49461;BME280;35355;49.198;-0.368;2023-01-28T02:46:33;102369.28;;;3.59;76.29
49461;BME280;35355;49.198;-0.368;2023-01-28T02:52:05;102372.81;;;3.60;76.51
49461;BME280;35355;49.198;-0.368;2023-01-28T03:02:32;102371.97;;;3.59;76.18
49461;BME280;35355;49.198;-0.368;2023-01-28T03:07:37;102389.53;;;3.63;76.33
49461;BME280;35355;49.198;-0.368;2023-01-28T03:10:07;102389.53;;;3.63;76.50
49461;BME280;35355;49.198;-0.368;2023-01-28T03:12:34;102385.78;;;3.64;76.10
49461;BME280;35355;49.198;-0.368;2023-01-28T03:15:23;102385.78;;;3.64;76.37
49461;BME280;35355;49.198;-0.368;2023-01-28T03:18:28;102391.19;;;3.64;76.40
49461;BME280;35355;49.198;-0.368;2023-01-28T03:21:24;102384.47;;;3.60;76.45
49461;BME280;35355;49.198;-0.368;2023-01-28T03:27:04;102388.38;;;3.49;76.41
49461;BME280;35355;49.198;-0.368;2023-01-28T03:29:50;102386.53;;;3.50;76.68
49461;BME280;35355;49.198;-0.368;2023-01-28T03:32:37;102387.91;;;3.46;76.39
49461;BME280;35355;49.198;-0.368;2023-01-28T03:35:27;102386.91;;;3.39;76.46
49461;BME280;35355;49.198;-0.368;2023-01-28T03:38:12;102383.22;;;3.31;76.50
49461;BME280;35355;49.198;-0.368;2023-01-28T03:40:58;102386.91;;;3.30;76.53
49461;BME280;35355;49.198;-0.368;2023-01-28T03:43:24;102387.25;;;3.27;76.56
49461;BME280;35355;49.198;-0.368;2023-01-28T03:45:50;102380.34;;;3.25;76.34
49461;BME280;35355;49.198;-0.368;2023-01-28T03:48:21;102387.94;;;3.29;76.88
49461;BME280;35355;49.198;-0.368;2023-01-28T03:50:47;102381.50;;;3.30;76.94
49461;BME280;35355;49.198;-0.368;2023-01-28T03:53:14;102379.50;;;3.24;76.69
49461;BME280;35355;49.198;-0.368;2023-01-28T03:55:41;102386.09;;;3.22;76.79
49461;BME280;35355;49.198;-0.368;2023-01-28T03:58:07;102375.50;;;3.12;76.69
49461;BME280;35355;49.198;-0.368;2023-01-28T04:00:32;102378.53;;;3.09;76.82
49461;BME280;35355;49.198;-0.368;2023-01-28T04:02:59;102369.28;;;3.03;76.93
49461;BME280;35355;49.198;-0.368;2023-01-28T04:05:25;102373.50;;;2.97;77.25
49461;BME280;35355;49.198;-0.368;2023-01-28T04:07:54;102382.59;;;2.96;77.39
49461;BME280;35355;49.198;-0.368;2023-01-28T04:10:19;102386.66;;;2.92;77.09
49461;BME280;35355;49.198;-0.368;2023-01-28T04:12:45;102388.19;;;2.87;77.56
49461;BME280;35355;49.198;-0.368;2023-01-28T04:15:15;102389.69;;;2.81;77.18
49461;BME280;35355;49.198;-0.368;2023-01-28T04:17:47;102396.59;;;2.75;77.09
49461;BME280;35355;49.198;-0.368;2023-01-28T04:20:13;102395.75;;;2.67;77.55
49461;BME280;35355;49.198;-0.368;2023-01-28T04:22:39;102388.16;;;2.54;77.17
49461;BME280;35355;49.198;-0.368;2023-01-28T04:25:05;102399.13;;;2.44;77.48
49461;BME280;35355;49.198;-0.368;2023-01-28T04:27:30;102404.66;;;2.34;77.73
49461;BME280;35355;49.198;-0.368;2023-01-28T04:29:56;102404.50;;;2.27;77.71
49461;BME280;35355;49.198;-0.368;2023-01-28T04:32:21;102408.69;;;2.22;78.30
49461;BME280;35355;49.198;-0.368;2023-01-28T04:34:46;102415.91;;;2.21;78.12
49461;BME280;35355;49.198;-0.368;2023-01-28T04:37:12;102407.16;;;2.19;78.65
49461;BME280;35355;49.198;-0.368;2023-01-28T04:39:37;102416.06;;;2.20;77.97
49461;BME280;35355;49.198;-0.368;2023-01-28T04:42:02;102420.47;;;2.21;78.75
49461;BME280;35355;49.198;-0.368;2023-01-28T04:44:28;102411.03;;;2.25;78.79
49461;BME280;35355;49.198;-0.368;2023-01-28T04:46:53;102412.25;;;2.31;78.68
49461;BME280;35355;49.198;-0.368;2023-01-28T04:49:18;102420.66;;;2.36;78.68
49461;BME280;35355;49.198;-0.368;2023-01-28T04:51:44;102412.22;;;2.39;78.63
49461;BME280;35355;49.198;-0.368;2023-01-28T04:54:09;102420.50;;;2.45;78.83
49461;BME280;35355;49.198;-0.368;2023-01-28T04:56:35;102423.72;;;2.49;78.86
49461;BME280;35355;49.198;-0.368;2023-01-28T04:59:00;102421.00;;;2.49;79.08
49461;BME280;35355;49.198;-0.368;2023-01-28T05:01:27;102422.72;;;2.50;78.80
49461;BME280;35355;49.198;-0.368;2023-01-28T05:03:52;102427.75;;;2.53;78.67
49461;BME280;35355;49.198;-0.368;2023-01-28T05:06:17;102430.94;;;2.57;78.80
49461;BME280;35355;49.198;-0.368;2023-01-28T05:08:43;102432.81;;;2.56;78.55
49461;BME280;35355;49.198;-0.368;2023-01-28T05:11:10;102430.13;;;2.56;78.84
49461;BME280;35355;49.198;-0.368;2023-01-28T05:13:36;102426.09;;;2.60;79.35
49461;BME280;35355;49.198;-0.368;2023-01-28T05:16:01;102423.22;;;2.62;79.35
49461;BME280;35355;49.198;-0.368;2023-01-28T05:18:27;102421.34;;;2.62;78.99
49461;BME280;35355;49.198;-0.368;2023-01-28T05:20:52;102420.34;;;2.63;78.89
49461;BME280;35355;49.198;-0.368;2023-01-28T05:23:18;102418.66;;;2.62;79.22
49461;BME280;35355;49.198;-0.368;2023-01-28T05:25:43;102415.31;;;2.60;79.22
49461;BME280;35355;49.198;-0.368;2023-01-28T05:28:10;102417.34;;;2.58;78.71
49461;BME280;35355;49.198;-0.368;2023-01-28T05:30:37;102417.97;;;2.52;78.99
49461;BME280;35355;49.198;-0.368;2023-01-28T05:52:18;102440.88;;;1.81;79.44
49461;BME280;35355;49.198;-0.368;2023-01-28T05:54:43;102438.34;;;1.87;79.18
49461;BME280;35355;49.198;-0.368;2023-01-28T05:57:09;102442.63;;;1.98;80.06
49461;BME280;35355;49.198;-0.368;2023-01-28T05:59:34;102436.75;;;2.11;80.02
49461;BME280;35355;49.198;-0.368;2023-01-28T06:01:59;102440.50;;;2.26;79.64
49461;BME280;35355;49.198;-0.368;2023-01-28T06:04:25;102439.53;;;2.36;80.01
49461;BME280;35355;49.198;-0.368;2023-01-28T06:06:50;102447.31;;;2.47;79.85
49461;BME280;35355;49.198;-0.368;2023-01-28T06:09:15;102447.28;;;2.55;80.21
49461;BME280;35355;49.198;-0.368;2023-01-28T06:11:41;102454.56;;;2.63;80.29
49461;BME280;35355;49.198;-0.368;2023-01-28T06:14:06;102454.25;;;2.66;79.93
49461;BME280;35355;49.198;-0.368;2023-01-28T06:16:32;102467.88;;;2.73;79.67
49461;BME280;35355;49.198;-0.368;2023-01-28T06:18:57;102457.28;;;2.79;80.19
49461;BME280;35355;49.198;-0.368;2023-01-28T06:21:22;102458.47;;;2.85;80.27
49461;BME280;35355;49.198;-0.368;2023-01-28T06:23:48;102456.63;;;2.94;80.07
49461;BME280;35355;49.198;-0.368;2023-01-28T06:26:13;102459.81;;;2.97;80.12
49461;BME280;35355;49.198;-0.368;2023-01-28T06:28:40;102453.72;;;3.04;80.12
49461;BME280;35355;49.198;-0.368;2023-01-28T06:31:05;102457.78;;;3.08;80.09
49461;BME280;35355;49.198;-0.368;2023-01-28T06:33:31;102452.03;;;3.11;80.04
49461;BME280;35355;49.198;-0.368;2023-01-28T06:35:56;102461.16;;;3.18;79.79
49461;BME280;35355;49.198;-0.368;2023-01-28T06:38:22;102455.41;;;3.21;79.87
49461;BME280;35355;49.198;-0.368;2023-01-28T06:40:53;102462.16;;;3.25;80.01
49461;BME280;35355;49.198;-0.368;2023-01-28T06:43:20;102469.75;;;3.30;79.75
49461;BME280;35355;49.198;-0.368;2023-01-28T06:45:55;102473.63;;;3.36;79.93
49461;BME280;35355;49.198;-0.368;2023-01-28T06:48:20;102467.22;;;3.37;79.46
49461;BME280;35355;49.198;-0.368;2023-01-28T06:50:46;102468.03;;;3.37;80.22
49461;BME280;35355;49.198;-0.368;2023-01-28T06:53:12;102466.88;;;3.40;79.87
49461;BME280;35355;49.198;-0.368;2023-01-28T06:55:38;102466.88;;;3.40;80.09
49461;BME280;35355;49.198;-0.368;2023-01-28T06:58:03;102475.47;;;3.43;79.88
49461;BME280;35355;49.198;-0.368;2023-01-28T07:00:28;102474.97;;;3.40;79.94
49461;BME280;35355;49.198;-0.368;2023-01-28T07:02:55;102480.72;;;3.37;80.01
49461;BME280;35355;49.198;-0.368;2023-01-28T07:05:21;102480.19;;;3.33;80.06
49461;BME280;35355;49.198;-0.368;2023-01-28T07:07:46;102477.66;;;3.31;79.88
49461;BME280;35355;49.198;-0.368;2023-01-28T07:10:12;102465.19;;;3.30;80.15
49461;BME280;35355;49.198;-0.368;2023-01-28T07:12:37;102479.72;;;3.29;80.16
49461;BME280;35355;49.198;-0.368;2023-01-28T07:15:03;102464.16;;;3.23;80.28
49461;BME280;35355;49.198;-0.368;2023-01-28T07:17:28;102464.16;;;3.23;80.11
49461;BME280;35355;49.198;-0.368;2023-01-28T07:19:54;102468.25;;;3.19;80.31
49461;BME280;35355;49.198;-0.368;2023-01-28T07:22:19;102472.13;;;3.16;80.41
49461;BME280;35355;49.198;-0.368;2023-01-28T07:24:44;102471.94;;;3.18;80.32
49461;BME280;35355;49.198;-0.368;2023-01-28T07:27:09;102465.88;;;3.16;80.37
49461;BME280;35355;49.198;-0.368;2023-01-28T07:29:35;102474.13;;;3.23;80.44
49461;BME280;35355;49.198;-0.368;2023-01-28T07:32:00;102478.34;;;3.25;80.51
49461;BME280;35355;49.198;-0.368;2023-01-28T07:34:26;102483.75;;;3.25;80.50
49461;BME280;35355;49.198;-0.368;2023-01-28T07:36:51;102478.69;;;3.22;80.63
49461;BME280;35355;49.198;-0.368;2023-01-28T07:39:16;102480.88;;;3.27;80.97
49461;BME280;35355;49.198;-0.368;2023-01-28T07:41:42;102479.53;;;3.31;80.95
49461;BME280;35355;49.198;-0.368;2023-01-28T07:44:07;102469.56;;;3.31;80.83
49461;BME280;35355;49.198;-0.368;2023-01-28T07:46:32;102477.16;;;3.36;80.92
49461;BME280;35355;49.198;-0.368;2023-01-28T07:48:58;102481.72;;;3.36;80.93
49461;BME280;35355;49.198;-0.368;2023-01-28T07:51:24;102486.25;;;3.43;81.06
49461;BME280;35355;49.198;-0.368;2023-01-28T07:53:50;102478.63;;;3.47;80.87
49461;BME280;35355;49.198;-0.368;2023-01-28T07:56:15;102480.50;;;3.46;80.75
49461;BME280;35355;49.198;-0.368;2023-01-28T07:58:40;102470.53;;;3.47;80.59
49461;BME280;35355;49.198;-0.368;2023-01-28T08:01:06;102470.53;;;3.47;80.92
49461;BME280;35355;49.198;-0.368;2023-01-28T08:03:31;102475.09;;;3.46;80.83
49461;BME280;35355;49.198;-0.368;2023-01-28T08:05:57;102474.28;;;3.46;80.89
49461;BME280;35355;49.198;-0.368;2023-01-28T08:08:23;102490.47;;;3.46;81.35
49461;BME280;35355;49.198;-0.368;2023-01-28T08:10:50;102481.84;;;3.50;80.86
49461;BME280;35355;49.198;-0.368;2023-01-28T08:13:16;102484.03;;;3.55;81.14
49461;BME280;35355;49.198;-0.368;2023-01-28T08:15:41;102475.75;;;3.57;81.19
49461;BME280;35355;49.198;-0.368;2023-01-28T08:18:08;102488.56;;;3.63;81.35
49461;BME280;35355;49.198;-0.368;2023-01-28T08:20:34;102488.75;;;3.69;81.03
49461;BME280;35355;49.198;-0.368;2023-01-28T08:23:18;102490.22;;;3.80;80.86
49461;BME280;35355;49.198;-0.368;2023-01-28T08:25:45;102492.03;;;3.88;80.99
49461;BME280;35355;49.198;-0.368;2023-01-28T08:28:11;102491.38;;;3.94;80.97
49461;BME280;35355;49.198;-0.368;2023-01-28T08:30:37;102494.38;;;3.99;80.81
49461;BME280;35355;49.198;-0.368;2023-01-28T08:33:04;102494.00;;;4.11;80.94
49461;BME280;35355;49.198;-0.368;2023-01-28T08:35:31;102505.28;;;4.22;80.61
49461;BME280;35355;49.198;-0.368;2023-01-28T08:37:59;102495.63;;;4.28;80.74
49461;BME280;35355;49.198;-0.368;2023-01-28T08:40:24;102496.25;;;4.38;80.76
49461;BME280;35355;49.198;-0.368;2023-01-28T08:42:51;102497.56;;;4.43;80.57
49461;BME280;35355;49.198;-0.368;2023-01-28T08:45:18;102496.19;;;4.47;80.10
49461;BME280;35355;49.198;-0.368;2023-01-28T08:47:48;102496.19;;;4.47;80.41
49461;BME280;35355;49.198;-0.368;2023-01-28T08:50:13;102504.81;;;4.50;79.86
49461;BME280;35355;49.198;-0.368;2023-01-28T08:52:38;102495.81;;;4.50;80.44
49461;BME280;35355;49.198;-0.368;2023-01-28T08:55:06;102505.63;;;4.51;79.97
49461;BME280;35355;49.198;-0.368;2023-01-28T08:57:32;102517.78;;;4.55;80.15
49461;BME280;35355;49.198;-0.368;2023-01-28T08:59:57;102516.09;;;4.54;80.45
49461;BME280;35355;49.198;-0.368;2023-01-28T09:02:23;102526.19;;;4.60;80.37
49461;BME280;35355;49.198;-0.368;2023-01-28T09:04:48;102525.19;;;4.61;79.96
49461;BME280;35355;49.198;-0.368;2023-01-28T09:07:13;102527.53;;;4.64;80.13
49461;BME280;35355;49.198;-0.368;2023-01-28T09:09:39;102527.00;;;4.69;80.19
49461;BME280;35355;49.198;-0.368;2023-01-28T09:12:04;102539.31;;;4.71;79.74
49461;BME280;35355;49.198;-0.368;2023-01-28T09:14:30;102550.16;;;4.71;79.58
49461;BME280;35355;49.198;-0.368;2023-01-28T09:16:55;102544.56;;;4.73;79.35
49461;BME280;35355;49.198;-0.368;2023-01-28T09:19:20;102533.91;;;4.71;79.87
49461;BME280;35355;49.198;-0.368;2023-01-28T09:21:46;102538.13;;;4.74;79.54
49461;BME280;35355;49.198;-0.368;2023-01-28T09:24:13;102547.56;;;4.78;79.66
49461;BME280;35355;49.198;-0.368;2023-01-28T09:26:38;102542.28;;;4.85;79.24
49461;BME280;35355;49.198;-0.368;2023-01-28T09:29:03;102553.41;;;4.90;78.88
49461;BME280;35355;49.198;-0.368;2023-01-28T09:31:29;102556.78;;;4.92;78.94
49461;BME280;35355;49.198;-0.368;2023-01-28T09:33:54;102541.75;;;4.89;79.37
49461;BME280;35355;49.198;-0.368;2023-01-28T09:36:22;102547.34;;;4.88;79.17
49461;BME280;35355;49.198;-0.368;2023-01-28T09:38:47;102552.56;;;4.89;79.01
49461;BME280;35355;49.198;-0.368;2023-01-28T09:41:25;102555.22;;;4.98;79.73
49461;BME280;35355;49.198;-0.368;2023-01-28T09:46:37;102558.72;;;5.06;79.31
49461;BME280;35355;49.198;-0.368;2023-01-28T09:49:17;102567.09;;;5.20;79.59
49461;BME280;35355;49.198;-0.368;2023-01-28T09:51:50;102561.59;;;5.28;79.69
49461;BME280;35355;49.198;-0.368;2023-01-28T09:55:06;102563.38;;;5.36;79.18
49461;BME280;35355;49.198;-0.368;2023-01-28T09:57:16;102581.81;;;5.40;79.33
49461;BME280;35355;49.198;-0.368;2023-01-28T09:59:43;102572.28;;;5.44;79.83
49461;BME280;35355;49.198;-0.368;2023-01-28T10:02:31;102572.59;;;5.50;79.16
49461;BME280;35355;49.198;-0.368;2023-01-28T10:05:21;102588.94;;;5.56;79.22
49461;BME280;35355;49.198;-0.368;2023-01-28T10:10:49;102584.38;;;5.57;79.61
49461;BME280;35355;49.198;-0.368;2023-01-28T10:13:45;102582.81;;;5.62;79.33
49461;BME280;35355;49.198;-0.368;2023-01-28T10:19:01;102586.91;;;5.58;79.53
49461;BME280;35355;49.198;-0.368;2023-01-28T10:21:38;102591.38;;;5.51;79.99
49461;BME280;35355;49.198;-0.368;2023-01-28T10:24:14;102587.88;;;5.42;79.34
49461;BME280;35355;49.198;-0.368;2023-01-28T10:26:43;102589.25;;;5.38;78.86
49461;BME280;35355;49.198;-0.368;2023-01-28T10:29:13;102592.16;;;5.37;79.00
49461;BME280;35355;49.198;-0.368;2023-01-28T10:31:52;102586.09;;;5.35;79.32
49461;BME280;35355;49.198;-0.368;2023-01-28T10:34:19;102587.09;;;5.34;79.67
49461;BME280;35355;49.198;-0.368;2023-01-28T10:36:45;102592.69;;;5.32;79.15
49461;BME280;35355;49.198;-0.368;2023-01-28T10:39:17;102587.09;;;5.34;79.37
49461;BME280;35355;49.198;-0.368;2023-01-28T10:41:43;102599.09;;;5.39;79.70
49461;BME280;35355;49.198;-0.368;2023-01-28T10:44:15;102601.72;;;5.48;78.93
49461;BME280;35355;49.198;-0.368;2023-01-28T10:46:44;102600.31;;;5.52;79.41
49461;BME280;35355;49.198;-0.368;2023-01-28T10:49:26;102598.75;;;5.57;79.13
49461;BME280;35355;49.198;-0.368;2023-01-28T10:51:52;102592.59;;;5.63;79.27
49461;BME280;35355;49.198;-0.368;2023-01-28T10:54:22;102597.78;;;5.73;79.48
49461;BME280;35355;49.198;-0.368;2023-01-28T10:56:51;102585.00;;;5.82;79.06
49461;BME280;35355;49.198;-0.368;2023-01-28T10:59:25;102591.19;;;5.91;79.46
49461;BME280;35355;49.198;-0.368;2023-01-28T11:01:56;102596.41;;;5.92;79.29
49461;BME280;35355;49.198;-0.368;2023-01-28T11:04:33;102590.47;;;5.97;79.01
49461;BME280;35355;49.198;-0.368;2023-01-28T11:07:04;102587.38;;;6.00;78.79
49461;BME280;35355;49.198;-0.368;2023-01-28T11:09:35;102594.13;;;6.04;78.53
49461;BME280;35355;49.198;-0.368;2023-01-28T11:12:12;102595.44;;;6.08;79.41
49461;BME280;35355;49.198;-0.368;2023-01-28T11:14:48;102586.81;;;6.05;78.42
49461;BME280;35355;49.198;-0.368;2023-01-28T11:17:17;102592.44;;;6.03;78.18
49461;BME280;35355;49.198;-0.368;2023-01-28T11:19:43;102588.09;;;5.94;77.87
49461;BME280;35355;49.198;-0.368;2023-01-28T11:22:42;102589.13;;;5.93;77.88
49461;BME280;35355;49.198;-0.368;2023-01-28T11:25:21;102590.13;;;5.92;78.44
49461;BME280;35355;49.198;-0.368;2023-01-28T11:27:51;102589.31;;;5.91;78.56
49461;BME280;35355;49.198;-0.368;2023-01-28T11:35:27;102572.31;;;5.97;77.92
49461;BME280;35355;49.198;-0.368;2023-01-28T11:37:56;102566.91;;;5.97;77.73
49461;BME280;35355;49.198;-0.368;2023-01-28T11:40:22;102571.75;;;6.02;77.81
49461;BME280;35355;49.198;-0.368;2023-01-28T11:42:53;102577.38;;;6.01;77.93
49461;BME280;35355;49.198;-0.368;2023-01-28T11:45:46;102564.72;;;5.93;77.70
49461;BME280;35355;49.198;-0.368;2023-01-28T11:48:22;102560.41;;;5.84;78.23
49461;BME280;35355;49.198;-0.368;2023-01-28T11:54:08;102561.75;;;5.88;78.28
49461;BME280;35355;49.198;-0.368;2023-01-28T11:56:56;102562.34;;;5.98;79.56
49461;BME280;35355;49.198;-0.368;2023-01-28T12:00:03;102556.53;;;6.01;78.49
49461;BME280;35355;49.198;-0.368;2023-01-28T12:02:52;102561.22;;;6.07;78.32
49461;BME280;35355;49.198;-0.368;2023-01-28T12:05:48;102560.19;;;6.08;78.35
49461;BME280;35355;49.198;-0.368;2023-01-28T12:08:28;102562.22;;;6.06;77.67
49461;BME280;35355;49.198;-0.368;2023-01-28T12:11:19;102572.69;;;6.09;77.44
49461;BME280;35355;49.198;-0.368;2023-01-28T12:14:19;102570.56;;;6.05;77.63
49461;BME280;35355;49.198;-0.368;2023-01-28T12:22:32;102558.22;;;6.02;77.78
49461;BME280;35355;49.198;-0.368;2023-01-28T12:25:25;102561.59;;;6.04;78.09
49461;BME280;35355;49.198;-0.368;2023-01-28T12:28:02;102560.53;;;6.05;77.70
49461;BME280;35355;49.198;-0.368;2023-01-28T12:41:35;102530.72;;;6.05;76.93
49461;BME280;35355;49.198;-0.368;2023-01-28T12:44:08;102527.38;;;6.03;77.31
49461;BME280;35355;49.198;-0.368;2023-01-28T12:46:43;102519.88;;;6.05;77.35
49461;BME280;35355;49.198;-0.368;2023-01-28T12:52:14;102518.47;;;6.09;77.25
49461;BME280;35355;49.198;-0.368;2023-01-28T12:57:20;102497.47;;;6.11;77.32
49461;BME280;35355;49.198;-0.368;2023-01-28T13:02:34;102491.19;;;6.11;77.26
49461;BME280;35355;49.198;-0.368;2023-01-28T13:05:11;102481.56;;;6.08;76.88
49461;BME280;35355;49.198;-0.368;2023-01-28T13:10:28;102476.50;;;6.05;76.80
49461;BME280;35355;49.198;-0.368;2023-01-28T13:12:57;102469.81;;;6.01;76.82
49461;BME280;35355;49.198;-0.368;2023-01-28T13:15:23;102465.84;;;6.04;77.35
49461;BME280;35355;49.198;-0.368;2023-01-28T13:17:57;102458.84;;;6.09;76.96
49461;BME280;35355;49.198;-0.368;2023-01-28T13:23:26;102453.69;;;6.14;76.92
49461;BME280;35355;49.198;-0.368;2023-01-28T13:28:47;102443.16;;;6.05;77.18
49461;BME280;35355;49.198;-0.368;2023-01-28T13:31:17;102439.31;;;5.99;77.11
49461;BME280;35355;49.198;-0.368;2023-01-28T13:34:07;102445.47;;;5.93;76.90
49461;BME280;35355;49.198;-0.368;2023-01-28T13:41:40;102454.28;;;5.95;77.47
49461;BME280;35355;49.198;-0.368;2023-01-28T13:49:40;102473.53;;;6.00;76.76
49461;BME280;35355;49.198;-0.368;2023-01-28T13:54:40;102470.53;;;5.95;76.62
49461;BME280;35355;49.198;-0.368;2023-01-28T14:00:44;102487.91;;;5.86;76.96
49461;BME280;35355;49.198;-0.368;2023-01-28T14:21:33;102516.72;;;5.10;77.61
49461;BME280;35355;49.198;-0.368;2023-01-28T14:24:00;102507.94;;;5.08;77.87
49461;BME280;35355;49.198;-0.368;2023-01-28T14:26:38;102514.50;;;5.14;78.10
49461;BME280;35355;49.198;-0.368;2023-01-28T14:29:20;102514.78;;;5.19;77.90
49461;BME280;35355;49.198;-0.368;2023-01-28T14:31:49;102515.94;;;5.25;77.58
49461;BME280;35355;49.198;-0.368;2023-01-28T14:36:43;102517.66;;;5.41;78.11
49461;BME280;35355;49.198;-0.368;2023-01-28T14:39:15;102516.53;;;5.50;77.92
49461;BME280;35355;49.198;-0.368;2023-01-28T14:41:43;102516.47;;;5.58;78.06
49461;BME280;35355;49.198;-0.368;2023-01-28T14:44:15;102508.81;;;5.62;78.03
49461;BME280;35355;49.198;-0.368;2023-01-28T14:47:02;102502.38;;;5.63;78.12
49461;BME280;35355;49.198;-0.368;2023-01-28T14:49:43;102509.84;;;5.61;77.44
49461;BME280;35355;49.198;-0.368;2023-01-28T14:58:18;102516.56;;;5.65;77.96
49461;BME280;35355;49.198;-0.368;2023-01-28T15:00:55;102506.78;;;5.64;77.83
49461;BME280;35355;49.198;-0.368;2023-01-28T15:03:22;102521.44;;;5.70;78.34
49461;BME280;35355;49.198;-0.368;2023-01-28T15:05:48;102508.38;;;5.73;77.80
49461;BME280;35355;49.198;-0.368;2023-01-28T15:08:21;102503.97;;;5.72;77.85
49461;BME280;35355;49.198;-0.368;2023-01-28T15:10:48;102511.44;;;5.70;78.39
49461;BME280;35355;49.198;-0.368;2023-01-28T15:13:28;102508.06;;;5.68;78.26
49461;BME280;35355;49.198;-0.368;2023-01-28T15:15:54;102513.66;;;5.67;77.88
49461;BME280;35355;49.198;-0.368;2023-01-28T15:18:35;102512.47;;;5.69;78.01
49461;BME280;35355;49.198;-0.368;2023-01-28T15:21:01;102511.63;;;5.69;77.77
49461;BME280;35355;49.198;-0.368;2023-01-28T15:23:39;102508.56;;;5.72;78.44
49461;BME280;35355;49.198;-0.368;2023-01-28T15:26:19;102511.44;;;5.70;77.99
49461;BME280;35355;49.198;-0.368;2023-01-28T15:28:47;102522.94;;;5.72;78.55